PWSweather.com
Personal Weather Stations
Station Observations
KMAWOBUR2
West Side, Woburn, MA 01801

West SideWoburn, MA 01801

Lat: 42.458, Lon: -71.1955

Elevation: 160

Station Type: DAVIS/Vantage Pro2

http://pauland.net

Latest ConditionsUpdated 2:15:05 PM GMT Saturday, Mar 28, 2015
Currently Today's Max Today's Min Today's Average
Temperature 33.7°F0.9°C 37.5°F3.1°C 33.7°F0.9°C 35.1°F1.7°C
Dew Point 30.5°F-0.8°C 35.1°F1.7°C 29.6°F-1.3°C 32.2°F0.1°C
Winds Calm Calm 5.0 mph NW8.0 kmh NW - 0.7 mph 1.1 kmh
Wind Gusts 3.0 mph4.8 kmh 9.0 mph14.5 kmh - -
Humidity 88% 95% 78% 89%
Pressure 29.72 in1006.4 mb 29.72 in1006.4 mb 29.67 in1004.7 mb -
Precipitation - 0.02 in0.5 mm - -
Hour Temp Dew Point Humidity Winds Wind Gusts Pressure Precip Precip Rate Daily Precip Total
02:15 PM 33.7°F0.9°C 30.5°F-0.8°C 88% Calm Calm 3.0 mph4.8 kmh 29.72 in1006.4 mb 0.01 in0.3 mm 0.00 in0.0 mm 0.02 in0.5 mm
02:10 PM 33.8°F1.0°C 30.6°F-0.8°C 88% 2.0 mph NE3.2 kmh NE 8.0 mph12.9 kmh 29.72 in1006.4 mb 0.01 in0.3 mm 0.00 in0.0 mm 0.02 in0.5 mm
02:05 PM 33.8°F1.0°C 30.6°F-0.8°C 88% 2.0 mph NW3.2 kmh NW 3.0 mph4.8 kmh 29.72 in1006.4 mb 0.01 in0.3 mm 0.00 in0.0 mm 0.02 in0.5 mm
02:00 PM 34.0°F1.1°C 30.5°F-0.8°C 87% 2.0 mph NNE3.2 kmh NNE 7.0 mph11.3 kmh 29.72 in1006.4 mb 0.01 in0.3 mm 0.00 in0.0 mm 0.02 in0.5 mm
01:55 PM 34.0°F1.1°C 30.5°F-0.8°C 87% 1.0 mph N1.6 kmh N 3.0 mph4.8 kmh 29.72 in1006.4 mb 0.01 in0.3 mm 0.12 in3.0 mm 0.02 in0.5 mm
01:50 PM 34.1°F1.2°C 30.6°F-0.8°C 87% 1.0 mph NE1.6 kmh NE 4.0 mph6.4 kmh 29.72 in1006.4 mb 0.00 in0.0 mm 0.00 in0.0 mm 0.01 in0.3 mm
01:45 PM 34.1°F1.2°C 30.6°F-0.8°C 87% 3.0 mph NNE4.8 kmh NNE 4.0 mph6.4 kmh 29.72 in1006.4 mb 0.00 in0.0 mm 0.00 in0.0 mm 0.01 in0.3 mm
01:40 PM 34.3°F1.3°C 30.5°F-0.8°C 86% Calm Calm 4.0 mph6.4 kmh 29.71 in1006.1 mb 0.00 in0.0 mm 0.00 in0.0 mm 0.01 in0.3 mm
01:35 PM 34.4°F1.3°C 30.6°F-0.8°C 86% Calm Calm 6.0 mph9.7 kmh 29.71 in1006.1 mb 0.01 in0.3 mm 0.00 in0.0 mm 0.01 in0.3 mm
01:30 PM 34.6°F1.4°C 30.5°F-0.8°C 85% 2.0 mph N3.2 kmh N 8.0 mph12.9 kmh 29.71 in1006.1 mb 0.01 in0.3 mm 0.00 in0.0 mm 0.01 in0.3 mm
01:25 PM 34.9°F1.6°C 30.8°F-0.7°C 85% 4.0 mph N6.4 kmh N 5.0 mph8.0 kmh 29.71 in1006.1 mb 0.01 in0.3 mm 0.00 in0.0 mm 0.01 in0.3 mm
01:20 PM 34.9°F1.6°C 30.5°F-0.8°C 84% 3.0 mph NE4.8 kmh NE 4.0 mph6.4 kmh 29.71 in1006.1 mb 0.01 in0.3 mm 0.00 in0.0 mm 0.01 in0.3 mm
01:15 PM 34.9°F1.6°C 30.5°F-0.8°C 84% 3.0 mph NE4.8 kmh NE 4.0 mph6.4 kmh 29.71 in1006.1 mb 0.01 in0.3 mm 0.00 in0.0 mm 0.01 in0.3 mm
01:10 PM 34.9°F1.6°C 30.5°F-0.8°C 84% 2.0 mph N3.2 kmh N 5.0 mph8.0 kmh 29.71 in1006.1 mb 0.01 in0.3 mm 0.00 in0.0 mm 0.01 in0.3 mm
01:05 PM 34.9°F1.6°C 30.5°F-0.8°C 84% 3.0 mph NW4.8 kmh NW 8.0 mph12.9 kmh 29.71 in1006.1 mb 0.01 in0.3 mm 0.00 in0.0 mm 0.01 in0.3 mm
01:00 PM 34.7°F1.5°C 30.3°F-0.9°C 84% 1.0 mph ENE1.6 kmh ENE 7.0 mph11.3 kmh 29.71 in1006.1 mb 0.01 in0.3 mm 0.00 in0.0 mm 0.01 in0.3 mm
12:55 PM 34.7°F1.5°C 30.3°F-0.9°C 84% 2.0 mph NNW3.2 kmh NNW 7.0 mph11.3 kmh 29.71 in1006.1 mb 0.01 in0.3 mm 0.00 in0.0 mm 0.01 in0.3 mm
12:50 PM 34.7°F1.5°C 30.0°F-1.1°C 83% 2.0 mph NE3.2 kmh NE 7.0 mph11.3 kmh 29.71 in1006.1 mb 0.01 in0.3 mm 0.00 in0.0 mm 0.01 in0.3 mm
12:45 PM 34.7°F1.5°C 30.0°F-1.1°C 83% 4.0 mph N6.4 kmh N 7.0 mph11.3 kmh 29.71 in1006.1 mb 0.01 in0.3 mm 0.00 in0.0 mm 0.01 in0.3 mm
12:40 PM 34.7°F1.5°C 30.0°F-1.1°C 83% Calm Calm 6.0 mph9.7 kmh 29.71 in1006.1 mb 0.01 in0.3 mm 0.12 in3.0 mm 0.01 in0.3 mm
12:35 PM 34.9°F1.6°C 29.9°F-1.2°C 82% Calm Calm 7.0 mph11.3 kmh 29.71 in1006.1 mb 0.00 in0.0 mm 0.00 in0.0 mm 0.00 in0.0 mm
12:30 PM 34.9°F1.6°C 29.9°F-1.2°C 82% 1.0 mph E1.6 kmh E 4.0 mph6.4 kmh 29.71 in1006.1 mb 0.00 in0.0 mm 0.00 in0.0 mm 0.00 in0.0 mm
12:25 PM 34.9°F1.6°C 29.9°F-1.2°C 82% Calm Calm 5.0 mph8.0 kmh 29.71 in1006.1 mb 0.00 in0.0 mm 0.00 in0.0 mm 0.00 in0.0 mm
12:20 PM 35.0°F1.7°C 30.0°F-1.1°C 82% 2.0 mph NNE3.2 kmh NNE 5.0 mph8.0 kmh 29.71 in1006.1 mb 0.00 in0.0 mm 0.00 in0.0 mm 0.00 in0.0 mm
12:15 PM 35.2°F1.8°C 29.9°F-1.2°C 81% 1.0 mph N1.6 kmh N 5.0 mph8.0 kmh 29.71 in1006.1 mb 0.00 in0.0 mm 0.00 in0.0 mm 0.00 in0.0 mm
12:10 PM 35.2°F1.8°C 29.9°F-1.2°C 81% Calm Calm 4.0 mph6.4 kmh 29.71 in1006.1 mb 0.00 in0.0 mm 0.00 in0.0 mm 0.00 in0.0 mm
12:05 PM 35.3°F1.8°C 29.7°F-1.3°C 80% Calm Calm 3.0 mph4.8 kmh 29.71 in1006.1 mb 0.00 in0.0 mm 0.00 in0.0 mm 0.00 in0.0 mm
12:00 PM 35.3°F1.8°C 29.7°F-1.3°C 80% 3.0 mph NNE4.8 kmh NNE 4.0 mph6.4 kmh 29.71 in1006.1 mb 0.00 in0.0 mm 0.00 in0.0 mm 0.00 in0.0 mm
11:55 AM 35.5°F1.9°C 29.9°F-1.2°C 80% 1.0 mph NNE1.6 kmh NNE 6.0 mph9.7 kmh 29.71 in1006.1 mb 0.00 in0.0 mm 0.00 in0.0 mm 0.00 in0.0 mm
11:50 AM 35.5°F1.9°C 29.6°F-1.3°C 79% 2.0 mph NNE3.2 kmh NNE 3.0 mph4.8 kmh 29.71 in1006.1 mb 0.00 in0.0 mm 0.00 in0.0 mm 0.00 in0.0 mm
11:45 AM 35.5°F1.9°C 29.6°F-1.3°C 79% 2.0 mph N3.2 kmh N 6.0 mph9.7 kmh 29.71 in1006.1 mb 0.00 in0.0 mm 0.00 in0.0 mm 0.00 in0.0 mm
11:40 AM 35.6°F2.0°C 29.7°F-1.3°C 79% 5.0 mph NW8.0 kmh NW 6.0 mph9.7 kmh 29.70 in1005.8 mb 0.00 in0.0 mm 0.00 in0.0 mm 0.00 in0.0 mm
11:35 AM 35.6°F2.0°C 29.7°F-1.3°C 79% Calm Calm 4.0 mph6.4 kmh 29.70 in1005.8 mb 0.00 in0.0 mm 0.00 in0.0 mm 0.00 in0.0 mm
11:30 AM 35.6°F2.0°C 29.7°F-1.3°C 79% Calm Calm 3.0 mph4.8 kmh 29.70 in1005.8 mb 0.00 in0.0 mm 0.00 in0.0 mm 0.00 in0.0 mm
11:25 AM 35.6°F2.0°C 29.7°F-1.3°C 79% Calm Calm 5.0 mph8.0 kmh 29.69 in1005.4 mb 0.00 in0.0 mm 0.00 in0.0 mm 0.00 in0.0 mm
11:20 AM 35.6°F2.0°C 29.7°F-1.3°C 79% Calm Calm 5.0 mph8.0 kmh 29.69 in1005.4 mb 0.00 in0.0 mm 0.00 in0.0 mm 0.00 in0.0 mm
11:15 AM 35.8°F2.1°C 29.9°F-1.2°C 79% Calm Calm 5.0 mph8.0 kmh 29.69 in1005.4 mb 0.00 in0.0 mm 0.00 in0.0 mm 0.00 in0.0 mm
11:10 AM 35.8°F2.1°C 29.9°F-1.2°C 79% Calm Calm 3.0 mph4.8 kmh 29.69 in1005.4 mb 0.00 in0.0 mm 0.00 in0.0 mm 0.00 in0.0 mm
11:05 AM 35.9°F2.2°C 30.0°F-1.1°C 79% Calm Calm 3.0 mph4.8 kmh 29.69 in1005.4 mb 0.00 in0.0 mm 0.00 in0.0 mm 0.00 in0.0 mm
11:00 AM 35.9°F2.2°C 29.7°F-1.3°C 78% Calm Calm 3.0 mph4.8 kmh 29.69 in1005.4 mb 0.00 in0.0 mm 0.00 in0.0 mm 0.00 in0.0 mm
10:55 AM 35.9°F2.2°C 29.7°F-1.3°C 78% 2.0 mph NE3.2 kmh NE 3.0 mph4.8 kmh 29.69 in1005.4 mb 0.00 in0.0 mm 0.00 in0.0 mm 0.00 in0.0 mm
10:50 AM 35.9°F2.2°C 29.7°F-1.3°C 78% Calm Calm 8.0 mph12.9 kmh 29.69 in1005.4 mb 0.00 in0.0 mm 0.00 in0.0 mm 0.00 in0.0 mm
10:45 AM 35.9°F2.2°C 29.7°F-1.3°C 78% 1.0 mph NE1.6 kmh NE 7.0 mph11.3 kmh 29.69 in1005.4 mb 0.00 in0.0 mm 0.00 in0.0 mm 0.00 in0.0 mm
10:40 AM 35.9°F2.2°C 30.0°F-1.1°C 79% Calm Calm 8.0 mph12.9 kmh 29.68 in1005.1 mb 0.00 in0.0 mm 0.00 in0.0 mm 0.00 in0.0 mm
10:35 AM 35.9°F2.2°C 30.0°F-1.1°C 79% 5.0 mph NNE8.0 kmh NNE 6.0 mph9.7 kmh 29.68 in1005.1 mb 0.00 in0.0 mm 0.00 in0.0 mm 0.00 in0.0 mm
10:30 AM 35.9°F2.2°C 30.0°F-1.1°C 79% 4.0 mph NE6.4 kmh NE 9.0 mph14.5 kmh 29.68 in1005.1 mb 0.00 in0.0 mm 0.00 in0.0 mm 0.00 in0.0 mm
10:25 AM 35.9°F2.2°C 30.3°F-0.9°C 80% 2.0 mph NE3.2 kmh NE 7.0 mph11.3 kmh 29.68 in1005.1 mb 0.00 in0.0 mm 0.00 in0.0 mm 0.00 in0.0 mm
10:20 AM 35.9°F2.2°C 30.3°F-0.9°C 80% 3.0 mph NE4.8 kmh NE 9.0 mph14.5 kmh 29.68 in1005.1 mb 0.00 in0.0 mm 0.00 in0.0 mm 0.00 in0.0 mm
10:15 AM 36.0°F2.2°C 30.4°F-0.9°C 80% 4.0 mph N6.4 kmh N 8.0 mph12.9 kmh 29.68 in1005.1 mb 0.00 in0.0 mm 0.00 in0.0 mm 0.00 in0.0 mm
10:10 AM 36.0°F2.2°C 30.7°F-0.7°C 81% Calm Calm 6.0 mph9.7 kmh 29.67 in1004.7 mb 0.00 in0.0 mm 0.00 in0.0 mm 0.00 in0.0 mm
10:05 AM 35.9°F2.2°C 30.6°F-0.8°C 81% Calm Calm 4.0 mph6.4 kmh 29.67 in1004.7 mb 0.00 in0.0 mm 0.00 in0.0 mm 0.00 in0.0 mm
10:00 AM 35.9°F2.2°C 30.9°F-0.6°C 82% 3.0 mph NNE4.8 kmh NNE 5.0 mph8.0 kmh 29.67 in1004.7 mb 0.00 in0.0 mm 0.00 in0.0 mm 0.00 in0.0 mm
09:55 AM 35.9°F2.2°C 30.9°F-0.6°C 82% 1.0 mph NNW1.6 kmh NNW 7.0 mph11.3 kmh 29.67 in1004.7 mb 0.00 in0.0 mm 0.00 in0.0 mm 0.00 in0.0 mm
09:50 AM 35.9°F2.2°C 30.9°F-0.6°C 82% Calm Calm 3.0 mph4.8 kmh 29.67 in1004.7 mb 0.00 in0.0 mm 0.00 in0.0 mm 0.00 in0.0 mm
09:45 AM 35.9°F2.2°C 30.9°F-0.6°C 82% 2.0 mph NNE3.2 kmh NNE 3.0 mph4.8 kmh 29.67 in1004.7 mb 0.00 in0.0 mm 0.00 in0.0 mm 0.00 in0.0 mm
09:40 AM 35.9°F2.2°C 31.2°F-0.4°C 83% 1.0 mph NNE1.6 kmh NNE 2.0 mph3.2 kmh 29.68 in1005.1 mb 0.00 in0.0 mm 0.00 in0.0 mm 0.00 in0.0 mm
09:35 AM 35.9°F2.2°C 31.2°F-0.4°C 83% Calm Calm 4.0 mph6.4 kmh 29.68 in1005.1 mb 0.00 in0.0 mm 0.00 in0.0 mm 0.00 in0.0 mm
09:30 AM 35.9°F2.2°C 31.5°F-0.3°C 84% Calm Calm 6.0 mph9.7 kmh 29.68 in1005.1 mb 0.00 in0.0 mm 0.00 in0.0 mm 0.00 in0.0 mm
09:25 AM 35.9°F2.2°C 31.5°F-0.3°C 84% 3.0 mph N4.8 kmh N 6.0 mph9.7 kmh 29.68 in1005.1 mb 0.00 in0.0 mm 0.00 in0.0 mm 0.00 in0.0 mm
09:20 AM 35.8°F2.1°C 31.7°F-0.2°C 85% 1.0 mph N1.6 kmh N 6.0 mph9.7 kmh 29.68 in1005.1 mb 0.00 in0.0 mm 0.00 in0.0 mm 0.00 in0.0 mm
09:15 AM 35.8°F2.1°C 31.7°F-0.2°C 85% 1.0 mph NNE1.6 kmh NNE 5.0 mph8.0 kmh 29.68 in1005.1 mb 0.00 in0.0 mm 0.00 in0.0 mm 0.00 in0.0 mm
09:10 AM 35.9°F2.2°C 31.8°F-0.1°C 85% Calm Calm 5.0 mph8.0 kmh 29.68 in1005.1 mb 0.00 in0.0 mm 0.00 in0.0 mm 0.00 in0.0 mm
09:05 AM 35.9°F2.2°C 32.1°F0.1°C 86% Calm Calm 2.0 mph3.2 kmh 29.68 in1005.1 mb 0.00 in0.0 mm 0.00 in0.0 mm 0.00 in0.0 mm
09:00 AM 35.9°F2.2°C 32.1°F0.1°C 86% Calm Calm 1.0 mph1.6 kmh 29.68 in1005.1 mb 0.00 in0.0 mm 0.00 in0.0 mm 0.00 in0.0 mm
08:55 AM 35.9°F2.2°C 32.1°F0.1°C 86% Calm Calm 3.0 mph4.8 kmh 29.68 in1005.1 mb 0.00 in0.0 mm 0.00 in0.0 mm 0.00 in0.0 mm
08:50 AM 35.9°F2.2°C 32.4°F0.2°C 87% 2.0 mph N3.2 kmh N 4.0 mph6.4 kmh 29.68 in1005.1 mb 0.00 in0.0 mm 0.00 in0.0 mm 0.00 in0.0 mm
08:45 AM 35.8°F2.1°C 32.3°F0.2°C 87% 1.0 mph N1.6 kmh N 5.0 mph8.0 kmh 29.68 in1005.1 mb 0.00 in0.0 mm 0.00 in0.0 mm 0.00 in0.0 mm
08:40 AM 35.8°F2.1°C 32.6°F0.3°C 88% Calm Calm 2.0 mph3.2 kmh 29.67 in1004.7 mb 0.00 in0.0 mm 0.00 in0.0 mm 0.00 in0.0 mm
08:35 AM 35.8°F2.1°C 32.6°F0.3°C 88% 1.0 mph NW1.6 kmh NW 3.0 mph4.8 kmh 29.67 in1004.7 mb 0.00 in0.0 mm 0.00 in0.0 mm 0.00 in0.0 mm
08:30 AM 35.8°F2.1°C 32.8°F0.4°C 89% 1.0 mph NW1.6 kmh NW 2.0 mph3.2 kmh 29.67 in1004.7 mb 0.00 in0.0 mm 0.00 in0.0 mm 0.00 in0.0 mm
08:25 AM 35.8°F2.1°C 32.8°F0.4°C 89% Calm Calm 2.0 mph3.2 kmh 29.67 in1004.7 mb 0.00 in0.0 mm 0.00 in0.0 mm 0.00 in0.0 mm
08:20 AM 35.8°F2.1°C 33.1°F0.6°C 90% Calm Calm 4.0 mph6.4 kmh 29.67 in1004.7 mb 0.00 in0.0 mm 0.00 in0.0 mm 0.00 in0.0 mm
08:15 AM 35.8°F2.1°C 33.1°F0.6°C 90% 2.0 mph 3.2 kmh 2.0 mph3.2 kmh 29.67 in1004.7 mb 0.00 in0.0 mm 0.00 in0.0 mm 0.00 in0.0 mm
08:10 AM 35.8°F2.1°C 33.1°F0.6°C 90% 2.0 mph 3.2 kmh 4.0 mph6.4 kmh 29.68 in1005.1 mb 0.00 in0.0 mm 0.00 in0.0 mm 0.00 in0.0 mm
08:05 AM 35.8°F2.1°C 33.4°F0.8°C 91% Calm Calm 5.0 mph8.0 kmh 29.68 in1005.1 mb 0.00 in0.0 mm 0.00 in0.0 mm 0.00 in0.0 mm
08:00 AM 35.6°F2.0°C 33.2°F0.7°C 91% 1.0 mph NE1.6 kmh NE 5.0 mph8.0 kmh 29.68 in1005.1 mb 0.00 in0.0 mm 0.00 in0.0 mm 0.00 in0.0 mm
07:55 AM 35.6°F2.0°C 33.5°F0.8°C 92% Calm Calm 4.0 mph6.4 kmh 29.68 in1005.1 mb 0.00 in0.0 mm 0.00 in0.0 mm 0.00 in0.0 mm
07:50 AM 35.6°F2.0°C 33.5°F0.8°C 92% 1.0 mph NE1.6 kmh NE 2.0 mph3.2 kmh 29.68 in1005.1 mb 0.00 in0.0 mm 0.00 in0.0 mm 0.00 in0.0 mm
07:45 AM 35.5°F1.9°C 33.6°F0.9°C 93% Calm Calm 6.0 mph9.7 kmh 29.68 in1005.1 mb 0.00 in0.0 mm 0.00 in0.0 mm 0.00 in0.0 mm
07:40 AM 35.5°F1.9°C 33.6°F0.9°C 93% 3.0 mph NNW4.8 kmh NNW 4.0 mph6.4 kmh 29.68 in1005.1 mb 0.00 in0.0 mm 0.00 in0.0 mm 0.00 in0.0 mm
07:35 AM 35.5°F1.9°C 33.6°F0.9°C 93% 2.0 mph NNW3.2 kmh NNW 7.0 mph11.3 kmh 29.68 in1005.1 mb 0.00 in0.0 mm 0.00 in0.0 mm 0.00 in0.0 mm
07:30 AM 35.3°F1.8°C 33.7°F0.9°C 94% 4.0 mph N6.4 kmh N 6.0 mph9.7 kmh 29.68 in1005.1 mb 0.00 in0.0 mm 0.00 in0.0 mm 0.00 in0.0 mm
07:25 AM 35.2°F1.8°C 33.6°F0.9°C 94% 2.0 mph NNW3.2 kmh NNW 3.0 mph4.8 kmh 29.68 in1005.1 mb 0.00 in0.0 mm 0.00 in0.0 mm 0.00 in0.0 mm
07:20 AM 35.2°F1.8°C 33.6°F0.9°C 94% Calm Calm 3.0 mph4.8 kmh 29.68 in1005.1 mb 0.00 in0.0 mm 0.00 in0.0 mm 0.00 in0.0 mm
07:15 AM 35.2°F1.8°C 33.6°F0.9°C 94% 1.0 mph NNW1.6 kmh NNW 4.0 mph6.4 kmh 29.68 in1005.1 mb 0.00 in0.0 mm 0.00 in0.0 mm 0.00 in0.0 mm
07:10 AM 35.2°F1.8°C 33.6°F0.9°C 94% Calm Calm 3.0 mph4.8 kmh 29.69 in1005.4 mb 0.00 in0.0 mm 0.00 in0.0 mm 0.00 in0.0 mm
07:05 AM 35.2°F1.8°C 33.9°F1.1°C 95% 3.0 mph NNW4.8 kmh NNW 4.0 mph6.4 kmh 29.69 in1005.4 mb 0.00 in0.0 mm 0.00 in0.0 mm 0.00 in0.0 mm
07:00 AM 35.2°F1.8°C 33.9°F1.1°C 95% 3.0 mph NNW4.8 kmh NNW 3.0 mph4.8 kmh 29.69 in1005.4 mb 0.00 in0.0 mm 0.00 in0.0 mm 0.00 in0.0 mm
06:55 AM 35.2°F1.8°C 33.9°F1.1°C 95% Calm Calm 3.0 mph4.8 kmh 29.69 in1005.4 mb 0.00 in0.0 mm 0.00 in0.0 mm 0.00 in0.0 mm
06:50 AM 35.2°F1.8°C 33.9°F1.1°C 95% 2.0 mph NNW3.2 kmh NNW 5.0 mph8.0 kmh 29.69 in1005.4 mb 0.00 in0.0 mm 0.00 in0.0 mm 0.00 in0.0 mm
06:45 AM 35.2°F1.8°C 33.9°F1.1°C 95% 1.0 mph NNW1.6 kmh NNW 4.0 mph6.4 kmh 29.69 in1005.4 mb 0.00 in0.0 mm 0.00 in0.0 mm 0.00 in0.0 mm
06:40 AM 35.2°F1.8°C 33.9°F1.1°C 95% 1.0 mph NNW1.6 kmh NNW 2.0 mph3.2 kmh 29.70 in1005.8 mb 0.00 in0.0 mm 0.00 in0.0 mm 0.00 in0.0 mm
06:35 AM 35.2°F1.8°C 33.9°F1.1°C 95% Calm Calm 4.0 mph6.4 kmh 29.70 in1005.8 mb 0.00 in0.0 mm 0.00 in0.0 mm 0.00 in0.0 mm
06:30 AM 35.2°F1.8°C 33.9°F1.1°C 95% Calm Calm 3.0 mph4.8 kmh 29.70 in1005.8 mb 0.00 in0.0 mm 0.00 in0.0 mm 0.00 in0.0 mm
06:25 AM 35.2°F1.8°C 33.9°F1.1°C 95% Calm Calm 3.0 mph4.8 kmh 29.70 in1005.8 mb 0.00 in0.0 mm 0.00 in0.0 mm 0.00 in0.0 mm
06:20 AM 35.0°F1.7°C 33.7°F0.9°C 95% Calm Calm 2.0 mph3.2 kmh 29.70 in1005.8 mb 0.00 in0.0 mm 0.00 in0.0 mm 0.00 in0.0 mm
06:15 AM 34.9°F1.6°C 33.6°F0.9°C 95% 1.0 mph NW1.6 kmh NW 2.0 mph3.2 kmh 29.70 in1005.8 mb 0.00 in0.0 mm 0.00 in0.0 mm 0.00 in0.0 mm
06:10 AM 34.6°F1.4°C 33.3°F0.7°C 95% Calm Calm 2.0 mph3.2 kmh 29.70 in1005.8 mb 0.00 in0.0 mm 0.00 in0.0 mm 0.00 in0.0 mm
06:05 AM 34.4°F1.3°C 33.1°F0.6°C 95% Calm Calm 1.0 mph1.6 kmh 29.70 in1005.8 mb 0.00 in0.0 mm 0.00 in0.0 mm 0.00 in0.0 mm
06:00 AM 34.4°F1.3°C 33.1°F0.6°C 95% Calm Calm -- 29.70 in1005.8 mb 0.00 in0.0 mm 0.00 in0.0 mm 0.00 in0.0 mm
05:55 AM 34.3°F1.3°C 33.0°F0.6°C 95% Calm Calm -- 29.70 in1005.8 mb 0.00 in0.0 mm 0.00 in0.0 mm 0.00 in0.0 mm
05:50 AM 34.1°F1.2°C 32.8°F0.4°C 95% Calm Calm -- 29.70 in1005.8 mb 0.00 in0.0 mm 0.00 in0.0 mm 0.00 in0.0 mm
05:45 AM 34.1°F1.2°C 32.8°F0.4°C 95% Calm Calm -- 29.70 in1005.8 mb 0.00 in0.0 mm 0.00 in0.0 mm 0.00 in0.0 mm
05:40 AM 34.1°F1.2°C 32.8°F0.4°C 95% Calm Calm -- 29.69 in1005.4 mb 0.00 in0.0 mm 0.00 in0.0 mm 0.00 in0.0 mm
05:35 AM 34.1°F1.2°C 32.8°F0.4°C 95% Calm Calm -- 29.69 in1005.4 mb 0.00 in0.0 mm 0.00 in0.0 mm 0.00 in0.0 mm
05:30 AM 34.3°F1.3°C 33.0°F0.6°C 95% Calm Calm -- 29.69 in1005.4 mb 0.00 in0.0 mm 0.00 in0.0 mm 0.00 in0.0 mm
05:25 AM 34.1°F1.2°C 32.8°F0.4°C 95% Calm Calm -- 29.71 in1006.1 mb 0.00 in0.0 mm 0.00 in0.0 mm 0.00 in0.0 mm
05:20 AM 34.1°F1.2°C 32.8°F0.4°C 95% Calm Calm -- 29.71 in1006.1 mb 0.00 in0.0 mm 0.00 in0.0 mm 0.00 in0.0 mm
05:15 AM 34.1°F1.2°C 32.8°F0.4°C 95% Calm Calm -- 29.71 in1006.1 mb 0.00 in0.0 mm 0.00 in0.0 mm 0.00 in0.0 mm
05:10 AM 34.1°F1.2°C 32.8°F0.4°C 95% Calm Calm -- 29.71 in1006.1 mb 0.00 in0.0 mm 0.00 in0.0 mm 0.00 in0.0 mm
05:05 AM 34.1°F1.2°C 32.8°F0.4°C 95% Calm Calm -- 29.71 in1006.1 mb 0.00 in0.0 mm 0.00 in0.0 mm 0.00 in0.0 mm
05:00 AM 34.1°F1.2°C 32.8°F0.4°C 95% Calm Calm 1.0 mph1.6 kmh 29.71 in1006.1 mb 0.00 in0.0 mm 0.00 in0.0 mm 0.00 in0.0 mm
04:55 AM 34.0°F1.1°C 32.7°F0.4°C 95% Calm Calm -- 29.71 in1006.1 mb 0.00 in0.0 mm 0.00 in0.0 mm 0.00 in0.0 mm
04:50 AM 33.8°F1.0°C 32.5°F0.3°C 95% Calm Calm -- 29.71 in1006.1 mb 0.00 in0.0 mm 0.00 in0.0 mm 0.00 in0.0 mm
04:45 AM 33.8°F1.0°C 32.5°F0.3°C 95% Calm Calm -- 29.71 in1006.1 mb 0.00 in0.0 mm 0.00 in0.0 mm 0.00 in0.0 mm
04:40 AM 33.8°F1.0°C 32.5°F0.3°C 95% Calm Calm -- 29.70 in1005.8 mb 0.00 in0.0 mm 0.00 in0.0 mm 0.00 in0.0 mm
04:35 AM 33.8°F1.0°C 32.2°F0.1°C 94% Calm Calm -- 29.70 in1005.8 mb 0.00 in0.0 mm 0.00 in0.0 mm 0.00 in0.0 mm
04:30 AM 34.0°F1.1°C 32.4°F0.2°C 94% Calm Calm -- 29.70 in1005.8 mb 0.00 in0.0 mm 0.00 in0.0 mm 0.00 in0.0 mm
04:25 AM 34.0°F1.1°C 32.4°F0.2°C 94% Calm Calm -- 29.72 in1006.4 mb 0.00 in0.0 mm 0.00 in0.0 mm 0.00 in0.0 mm
04:20 AM 34.0°F1.1°C 32.4°F0.2°C 94% Calm Calm -- 29.72 in1006.4 mb 0.00 in0.0 mm 0.00 in0.0 mm 0.00 in0.0 mm
04:15 AM 34.0°F1.1°C 32.4°F0.2°C 94% Calm Calm -- 29.72 in1006.4 mb 0.00 in0.0 mm 0.00 in0.0 mm 0.00 in0.0 mm
04:10 AM 34.0°F1.1°C 32.4°F0.2°C 94% Calm Calm -- 29.72 in1006.4 mb 0.00 in0.0 mm 0.00 in0.0 mm 0.00 in0.0 mm
04:05 AM 34.0°F1.1°C 32.4°F0.2°C 94% Calm Calm -- 29.72 in1006.4 mb 0.00 in0.0 mm 0.00 in0.0 mm 0.00 in0.0 mm
04:00 AM 33.8°F1.0°C 32.2°F0.1°C 94% Calm Calm -- 29.72 in1006.4 mb 0.00 in0.0 mm 0.00 in0.0 mm 0.18 in4.6 mm
03:55 AM 33.8°F1.0°C 32.2°F0.1°C 94% Calm Calm -- 29.72 in1006.4 mb 0.00 in0.0 mm 0.00 in0.0 mm 0.18 in4.6 mm
03:50 AM 33.7°F0.9°C 32.1°F0.1°C 94% Calm Calm -- 29.72 in1006.4 mb 0.00 in0.0 mm 0.00 in0.0 mm 0.18 in4.6 mm
03:45 AM 33.7°F0.9°C 32.1°F0.1°C 94% Calm Calm -- 29.72 in1006.4 mb 0.00 in0.0 mm 0.00 in0.0 mm 0.18 in4.6 mm
03:40 AM 33.7°F0.9°C 32.1°F0.1°C 94% Calm Calm -- 29.71 in1006.1 mb 0.00 in0.0 mm 0.00 in0.0 mm 0.18 in4.6 mm
03:35 AM 33.7°F0.9°C 32.1°F0.1°C 94% Calm Calm -- 29.71 in1006.1 mb 0.00 in0.0 mm 0.00 in0.0 mm 0.18 in4.6 mm
03:30 AM 33.8°F1.0°C 32.2°F0.1°C 94% Calm Calm -- 29.71 in1006.1 mb 0.00 in0.0 mm 0.00 in0.0 mm 0.18 in4.6 mm
03:25 AM 34.0°F1.1°C 32.4°F0.2°C 94% Calm Calm -- 29.69 in1005.4 mb 0.00 in0.0 mm 0.00 in0.0 mm 0.18 in4.6 mm
03:20 AM 34.1°F1.2°C 32.5°F0.3°C 94% Calm Calm -- 29.69 in1005.4 mb 0.00 in0.0 mm 0.00 in0.0 mm 0.18 in4.6 mm
03:15 AM 34.3°F1.3°C 32.7°F0.4°C 94% Calm Calm -- 29.69 in1005.4 mb 0.00 in0.0 mm 0.00 in0.0 mm 0.18 in4.6 mm
03:10 AM 34.4°F1.3°C 32.8°F0.4°C 94% Calm Calm -- 29.70 in1005.8 mb 0.00 in0.0 mm 0.00 in0.0 mm 0.18 in4.6 mm
03:05 AM 34.6°F1.4°C 33.0°F0.6°C 94% Calm Calm -- 29.70 in1005.8 mb 0.00 in0.0 mm 0.00 in0.0 mm 0.18 in4.6 mm
03:00 AM 34.7°F1.5°C 33.1°F0.6°C 94% Calm Calm -- 29.70 in1005.8 mb 0.00 in0.0 mm 0.00 in0.0 mm 0.18 in4.6 mm
02:55 AM 34.9°F1.6°C 33.3°F0.7°C 94% Calm Calm -- 29.71 in1006.1 mb 0.00 in0.0 mm 0.00 in0.0 mm 0.18 in4.6 mm
02:50 AM 34.9°F1.6°C 33.0°F0.6°C 93% Calm Calm -- 29.71 in1006.1 mb 0.00 in0.0 mm 0.00 in0.0 mm 0.18 in4.6 mm
02:45 AM 35.0°F1.7°C 33.4°F0.8°C 94% Calm Calm -- 29.71 in1006.1 mb 0.00 in0.0 mm 0.00 in0.0 mm 0.18 in4.6 mm
02:40 AM 35.0°F1.7°C 33.4°F0.8°C 94% Calm Calm -- 29.71 in1006.1 mb 0.00 in0.0 mm 0.00 in0.0 mm 0.18 in4.6 mm
02:35 AM 35.0°F1.7°C 33.4°F0.8°C 94% Calm Calm -- 29.71 in1006.1 mb 0.00 in0.0 mm 0.00 in0.0 mm 0.18 in4.6 mm
02:30 AM 35.0°F1.7°C 33.1°F0.6°C 93% Calm Calm -- 29.71 in1006.1 mb 0.00 in0.0 mm 0.00 in0.0 mm 0.18 in4.6 mm
02:25 AM 35.0°F1.7°C 33.1°F0.6°C 93% Calm Calm -- 29.71 in1006.1 mb 0.00 in0.0 mm 0.00 in0.0 mm 0.18 in4.6 mm
02:20 AM 35.0°F1.7°C 33.1°F0.6°C 93% Calm Calm -- 29.71 in1006.1 mb 0.00 in0.0 mm 0.00 in0.0 mm 0.18 in4.6 mm
02:15 AM 35.0°F1.7°C 33.1°F0.6°C 93% Calm Calm -- 29.71 in1006.1 mb 0.00 in0.0 mm 0.00 in0.0 mm 0.18 in4.6 mm
02:10 AM 35.0°F1.7°C 33.1°F0.6°C 93% Calm Calm -- 29.71 in1006.1 mb 0.00 in0.0 mm 0.00 in0.0 mm 0.18 in4.6 mm
02:05 AM 35.0°F1.7°C 33.1°F0.6°C 93% Calm Calm -- 29.71 in1006.1 mb 0.00 in0.0 mm 0.00 in0.0 mm 0.18 in4.6 mm
02:00 AM 35.2°F1.8°C 33.3°F0.7°C 93% Calm Calm -- 29.71 in1006.1 mb 0.00 in0.0 mm 0.00 in0.0 mm 0.18 in4.6 mm
01:55 AM 35.2°F1.8°C 33.3°F0.7°C 93% Calm Calm -- 29.69 in1005.4 mb 0.00 in0.0 mm 0.00 in0.0 mm 0.18 in4.6 mm
01:50 AM 35.2°F1.8°C 33.3°F0.7°C 93% Calm Calm -- 29.69 in1005.4 mb 0.00 in0.0 mm 0.00 in0.0 mm 0.18 in4.6 mm
01:45 AM 35.0°F1.7°C 33.1°F0.6°C 93% Calm Calm -- 29.69 in1005.4 mb 0.00 in0.0 mm 0.00 in0.0 mm 0.18 in4.6 mm
01:40 AM 35.2°F1.8°C 33.3°F0.7°C 93% Calm Calm -- 29.70 in1005.8 mb 0.00 in0.0 mm 0.00 in0.0 mm 0.18 in4.6 mm
01:35 AM 35.2°F1.8°C 33.3°F0.7°C 93% Calm Calm -- 29.70 in1005.8 mb 0.00 in0.0 mm 0.00 in0.0 mm 0.18 in4.6 mm
01:30 AM 35.3°F1.8°C 33.4°F0.8°C 93% Calm Calm -- 29.70 in1005.8 mb 0.00 in0.0 mm 0.00 in0.0 mm 0.18 in4.6 mm
01:25 AM 35.3°F1.8°C 33.4°F0.8°C 93% Calm Calm -- 29.69 in1005.4 mb 0.00 in0.0 mm 0.00 in0.0 mm 0.18 in4.6 mm
01:20 AM 35.5°F1.9°C 33.6°F0.9°C 93% Calm Calm -- 29.69 in1005.4 mb 0.00 in0.0 mm 0.00 in0.0 mm 0.18 in4.6 mm
01:15 AM 35.6°F2.0°C 33.7°F0.9°C 93% Calm Calm -- 29.69 in1005.4 mb 0.00 in0.0 mm 0.00 in0.0 mm 0.18 in4.6 mm
01:10 AM 35.8°F2.1°C 33.9°F1.1°C 93% Calm Calm -- 29.69 in1005.4 mb 0.00 in0.0 mm 0.00 in0.0 mm 0.18 in4.6 mm
01:05 AM 35.9°F2.2°C 33.8°F1.0°C 92% Calm Calm -- 29.69 in1005.4 mb 0.00 in0.0 mm 0.00 in0.0 mm 0.18 in4.6 mm
01:00 AM 36.0°F2.2°C 33.9°F1.1°C 92% Calm Calm -- 29.69 in1005.4 mb 0.00 in0.0 mm 0.00 in0.0 mm 0.18 in4.6 mm
12:55 AM 36.0°F2.2°C 33.9°F1.1°C 92% Calm Calm -- 29.69 in1005.4 mb 0.00 in0.0 mm 0.00 in0.0 mm 0.18 in4.6 mm
12:50 AM 36.2°F2.3°C 34.1°F1.2°C 92% Calm Calm -- 29.69 in1005.4 mb 0.00 in0.0 mm 0.00 in0.0 mm 0.18 in4.6 mm
12:45 AM 36.3°F2.4°C 34.2°F1.2°C 92% Calm Calm -- 29.69 in1005.4 mb 0.00 in0.0 mm 0.00 in0.0 mm 0.18 in4.6 mm
12:40 AM 36.5°F2.5°C 34.4°F1.3°C 92% Calm Calm -- 29.69 in1005.4 mb 0.00 in0.0 mm 0.00 in0.0 mm 0.18 in4.6 mm
12:35 AM 36.6°F2.6°C 34.4°F1.3°C 92% Calm Calm -- 29.69 in1005.4 mb 0.00 in0.0 mm 0.00 in0.0 mm 0.18 in4.6 mm
12:30 AM 36.8°F2.7°C 34.6°F1.4°C 92% Calm Calm -- 29.69 in1005.4 mb 0.00 in0.0 mm 0.00 in0.0 mm 0.18 in4.6 mm
12:25 AM 36.9°F2.7°C 34.7°F1.5°C 92% Calm Calm -- 29.69 in1005.4 mb 0.00 in0.0 mm 0.00 in0.0 mm 0.18 in4.6 mm
12:20 AM 36.9°F2.7°C 34.5°F1.4°C 91% Calm Calm -- 29.69 in1005.4 mb 0.00 in0.0 mm 0.00 in0.0 mm 0.18 in4.6 mm
12:15 AM 37.2°F2.9°C 34.8°F1.6°C 91% Calm Calm -- 29.69 in1005.4 mb 0.00 in0.0 mm 0.00 in0.0 mm 0.18 in4.6 mm
12:10 AM 37.3°F2.9°C 34.9°F1.6°C 91% Calm Calm -- 29.69 in1005.4 mb 0.00 in0.0 mm 0.00 in0.0 mm 0.18 in4.6 mm
12:05 AM 37.3°F2.9°C 34.9°F1.6°C 91% Calm Calm -- 29.69 in1005.4 mb 0.00 in0.0 mm 0.00 in0.0 mm 0.18 in4.6 mm
12:00 AM 37.5°F3.1°C 35.1°F1.7°C 91% Calm Calm -- 29.69 in1005.4 mb 0.00 in0.0 mm 0.00 in0.0 mm 0.18 in4.6 mm